Time;durP1;ratioP1;P1;durP2;ratioP2;P2;SDS_P1;SDS_P2;PMS_P1;PMS_P2;Temp;Humidity;BMP_temperature;BMP_pressure;BME280_temperature;BME280_humidity;BME280_pressure;Samples;Min_cycle;Max_cycle;Signal;HPM_P1;HPM_P2
2023/01/19 00:00:48;;;;;;;15.63;7.10;;;;;;;0.46;100.00;100060.94;5116306;28;20019;-85
2023/01/19 00:03:16;;;;;;;17.45;8.13;;;;;;;0.46;100.00;100056.69;5116573;28;20038;-86
2023/01/19 00:05:45;;;;;;;17.02;8.18;;;;;;;0.48;100.00;100068.59;5116689;28;20023;-86
2023/01/19 00:08:13;;;;;;;15.52;7.43;;;;;;;0.49;100.00;100060.13;5115394;28;20020;-86
2023/01/19 00:10:40;;;;;;;15.02;7.63;;;;;;;0.50;100.00;100061.84;5116177;28;20031;-86
2023/01/19 00:13:05;;;;;;;14.02;7.07;;;;;;;0.51;100.00;100063.56;5116019;28;20028;-87
2023/01/19 00:15:31;;;;;;;14.75;7.15;;;;;;;0.51;100.00;100066.94;5115634;28;20404;-87
2023/01/19 00:17:56;;;;;;;19.67;9.02;;;;;;;0.49;100.00;100071.19;5116079;28;20392;-86
2023/01/19 00:20:21;;;;;;;17.77;8.98;;;;;;;0.49;100.00;100063.53;5116020;28;20089;-87
2023/01/19 00:22:49;;;;;;;17.33;8.40;;;;;;;0.51;100.00;100066.09;5115551;28;20024;-87
2023/01/19 00:25:15;;;;;;;16.40;8.05;;;;;;;0.51;100.00;100071.22;5115954;28;20471;-87
2023/01/19 00:27:40;;;;;;;17.90;8.55;;;;;;;0.50;100.00;100079.69;5115797;28;20097;-86
2023/01/19 00:30:06;;;;;;;17.30;8.55;;;;;;;0.49;100.00;100077.97;5115143;28;20055;-87
2023/01/19 00:32:32;;;;;;;18.30;8.93;;;;;;;0.49;100.00;100081.41;5115211;28;20032;-87
2023/01/19 00:34:57;;;;;;;18.10;8.95;;;;;;;0.51;100.00;100078.88;5116109;28;20028;-87
2023/01/19 00:37:22;;;;;;;17.85;8.75;;;;;;;0.52;100.00;100086.53;5114535;28;20031;-87
2023/01/19 00:39:47;;;;;;;16.02;8.25;;;;;;;0.52;100.00;100085.69;5115899;28;20090;-86
2023/01/19 00:44:57;;;;;;;18.75;9.13;;;;;;;0.52;100.00;100072.94;5115806;28;20043;-87
2023/01/19 00:47:22;;;;;;;18.95;9.35;;;;;;;0.54;100.00;100076.38;5116047;28;20381;-88
2023/01/19 00:49:47;;;;;;;17.35;9.00;;;;;;;0.54;100.00;100061.88;5116100;28;20076;-88
2023/01/19 00:52:13;;;;;;;17.13;8.05;;;;;;;0.58;100.00;100062.78;5115471;28;20488;-88
2023/01/19 00:54:38;;;;;;;18.55;8.82;;;;;;;0.53;100.00;100055.06;5116221;28;20051;-88
2023/01/19 00:57:03;;;;;;;17.35;8.43;;;;;;;0.49;100.00;100062.66;5115311;28;20015;-88
2023/01/19 00:59:29;;;;;;;16.00;7.97;;;;;;;0.47;100.00;100055.00;5116317;28;20032;-88
2023/01/19 01:01:54;;;;;;;17.52;8.23;;;;;;;0.46;100.00;100066.03;5116166;28;20027;-89
2023/01/19 01:04:19;;;;;;;18.33;8.73;;;;;;;0.43;100.00;100059.22;5115921;28;20027;-89
2023/01/19 01:06:45;;;;;;;19.05;9.05;;;;;;;0.42;100.00;100067.69;5115276;28;20034;-89
2023/01/19 01:09:10;;;;;;;17.48;8.15;;;;;;;0.40;100.00;100065.94;5115901;28;20019;-88
2023/01/19 01:11:45;;;;;;;17.90;9.25;;;;;;;0.42;100.00;100065.16;5115867;28;20032;-89
2023/01/19 01:14:13;;;;;;;16.95;8.57;;;;;;;0.41;100.00;100072.78;5110675;28;20043;-89
2023/01/19 01:16:39;;;;;;;18.50;8.75;;;;;;;0.40;100.00;100063.38;5115906;28;20056;-88
2023/01/19 01:19:04;;;;;;;17.23;8.30;;;;;;;0.40;100.00;100063.38;5115639;28;20019;-87
2023/01/19 01:21:30;;;;;;;17.20;8.27;;;;;;;0.40;100.00;100071.91;5115601;28;20422;-88
2023/01/19 01:23:55;;;;;;;16.60;8.18;;;;;;;0.40;100.00;100077.03;5115760;28;20023;-89
2023/01/19 01:26:20;;;;;;;18.23;8.80;;;;;;;0.43;100.00;100082.19;5115312;28;20048;-89
2023/01/19 01:28:46;;;;;;;18.00;8.05;;;;;;;0.42;100.00;100080.47;5115262;28;20028;-88
2023/01/19 01:31:11;;;;;;;17.15;8.20;;;;;;;0.46;100.00;100089.03;5115036;28;20016;-88
2023/01/19 01:33:36;;;;;;;17.90;8.60;;;;;;;0.46;100.00;100084.75;5114761;28;20027;-88
2023/01/19 01:36:02;;;;;;;16.38;7.90;;;;;;;0.48;100.00;100079.69;5115698;28;20016;-88
2023/01/19 01:38:27;;;;;;;16.88;7.85;;;;;;;0.49;100.00;100073.75;5115672;28;20369;-88
2023/01/19 01:40:53;;;;;;;14.57;7.22;;;;;;;0.51;100.00;100074.59;5114979;28;20058;-89
2023/01/19 01:43:19;;;;;;;14.55;7.10;;;;;;;0.52;100.00;100080.59;5115153;28;20024;-89
2023/01/19 01:45:45;;;;;;;15.27;6.82;;;;;;;0.54;100.00;100081.47;5115170;28;20036;-89
2023/01/19 01:48:25;;;;;;;14.98;6.70;;;;;;;0.53;100.00;100078.03;5115110;28;20487;-89
2023/01/19 01:51:24;;;;;;;16.33;7.65;;;;;;;0.58;100.00;100080.66;5115270;28;20022;-89
2023/01/19 01:54:05;;;;;;;14.98;6.90;;;;;;;0.58;100.00;100088.31;5115129;28;20103;-89
2023/01/19 01:56:59;;;;;;;14.05;6.72;;;;;;;0.54;100.00;100084.88;5115200;28;20114;-90
2023/01/19 01:59:37;;;;;;;18.00;8.18;;;;;;;0.69;100.00;100085.91;5115293;28;20058;-91
2023/01/19 02:05:14;;;;;;;16.80;7.70;;;;;;;0.48;100.00;100089.03;5114884;28;20096;-89
2023/01/19 02:13:37;;;;;;;16.63;7.18;;;;;;;0.32;100.00;100098.16;5115215;28;20043;-91
2023/01/19 02:16:06;;;;;;;16.75;7.75;;;;;;;0.23;100.00;100098.88;5114643;28;20028;-92
2023/01/19 02:18:32;;;;;;;16.83;7.50;;;;;;;0.21;100.00;100103.13;5114089;28;20448;-91
2023/01/19 02:21:17;;;;;;;16.47;7.13;;;;;;;0.15;100.00;100099.63;5115236;28;20098;-91
2023/01/19 02:23:43;;;;;;;13.30;6.35;;;;;;;0.14;100.00;100103.03;5114694;28;20284;-92
2023/01/19 02:26:11;;;;;;;14.13;6.65;;;;;;;0.09;100.00;100098.69;5113728;28;20114;-92
2023/01/19 02:28:43;;;;;;;16.25;6.90;;;;;;;0.04;100.00;100101.16;5114779;28;20027;-91
2023/01/19 02:31:10;;;;;;;12.80;6.10;;;;;;;0.01;100.00;100106.22;5114105;28;20040;-91
2023/01/19 02:33:36;;;;;;;14.35;6.30;;;;;;;-0.02;100.00;100104.47;5114898;28;20059;-90
2023/01/19 02:36:02;;;;;;;14.33;6.30;;;;;;;-0.03;100.00;100096.81;5114606;28;20052;-92
2023/01/19 02:38:29;;;;;;;13.55;6.00;;;;;;;-0.06;100.00;100099.31;5114729;28;20020;-92
2023/01/19 02:40:58;;;;;;;13.93;6.32;;;;;;;-0.04;100.00;100105.28;5114686;28;20387;-91
2023/01/19 02:43:24;;;;;;;14.60;6.88;;;;;;;-0.03;100.00;100107.00;5114508;28;20208;-92
2023/01/19 02:45:49;;;;;;;13.95;7.25;;;;;;;-0.05;100.00;100106.13;5114763;28;20032;-92
2023/01/19 02:48:17;;;;;;;16.67;7.63;;;;;;;-0.09;100.00;100106.91;5114525;28;20147;-91
2023/01/19 02:50:46;;;;;;;16.63;7.53;;;;;;;-0.12;100.00;100111.97;5114486;28;20027;-93
2023/01/19 02:53:52;;;;;;;15.57;7.30;;;;;;;-0.15;100.00;100117.84;5114218;28;20038;-93
2023/01/19 02:56:27;;;;;;;;;;;;;;;-0.18;100.00;100118.66;5074260;28;20168;-94
2023/01/19 02:59:14;;;;;;;13.40;6.95;;;;;;;-0.22;100.00;100116.03;5114350;28;19915;-95
2023/01/19 03:01:46;;;;;;;15.75;7.90;;;;;;;-0.25;100.00;100121.97;5115832;28;20036;-94
2023/01/19 03:04:34;;;;;;;15.38;7.32;;;;;;;-0.24;100.00;100126.22;5114234;28;20032;-94
2023/01/19 03:07:10;;;;;;;15.55;7.50;;;;;;;-0.28;100.00;100126.16;5114166;28;20031;-95
2023/01/19 03:09:52;;;;;;;15.73;8.00;;;;;;;-0.31;100.00;100124.38;5114045;28;20061;-95
2023/01/19 03:12:39;;;;;;;15.70;8.07;;;;;;;-0.35;100.00;100132.84;5114863;28;20102;-96
2023/01/19 03:15:18;;;;;;;13.32;6.82;;;;;;;-0.35;100.00;100141.31;5115612;28;20028;-94
2023/01/19 03:17:47;;;;;;;13.98;6.63;;;;;;;-0.35;100.00;100140.50;5123451;28;20089;-95
2023/01/19 03:20:17;;;;;;;14.80;7.22;;;;;;;-0.35;100.00;100148.97;5119645;28;20019;-94
2023/01/19 03:22:44;;;;;;;15.60;7.60;;;;;;;-0.37;100.00;100150.63;5116714;28;20023;-94
2023/01/19 03:25:11;;;;;;;;;;;;;;;-0.36;100.00;100148.97;5114777;28;20080;-93
2023/01/19 03:27:40;;;;;;;;;;;;;;;-0.39;100.00;100151.44;5114390;28;19922;-94
2023/01/19 03:30:10;;;;;;;18.73;9.45;;;;;;;-0.41;100.00;100155.66;5116428;28;20363;-94
2023/01/19 03:32:43;;;;;;;16.08;8.77;;;;;;;-0.42;100.00;100148.84;5121559;28;20027;-95
2023/01/19 03:35:13;;;;;;;16.10;8.50;;;;;;;-0.43;100.00;100160.75;5121445;28;20031;-94
2023/01/19 03:37:42;;;;;;;17.42;8.95;;;;;;;-0.46;100.00;100153.03;5124697;28;20044;-96
2023/01/19 03:40:08;;;;;;;16.65;9.25;;;;;;;-0.46;100.00;100165.78;5122023;28;20027;-96
2023/01/19 03:42:35;;;;;;;17.10;9.00;;;;;;;-0.49;100.00;100168.25;5122115;28;20020;-96
2023/01/19 04:04:55;;;;;;;14.05;7.38;;;;;;;-0.65;100.00;100200.22;5555057;22;20117;-96
2023/01/19 04:07:37;;;;;;;11.82;6.78;;;;;;;-0.66;100.00;100206.16;5096934;22;20048;-96
2023/01/19 04:10:03;;;;;;;11.88;6.50;;;;;;;-0.69;100.00;100203.56;5032207;28;20049;-96
2023/01/19 04:12:28;;;;;;;11.60;6.20;;;;;;;-0.70;100.00;100200.13;5031578;28;20009;-96
2023/01/19 04:14:53;;;;;;;9.77;5.63;;;;;;;-0.70;100.00;100206.94;5036091;28;20026;-96
2023/01/19 04:17:19;;;;;;;8.57;4.88;;;;;;;-0.69;100.00;100206.97;5030450;28;20026;-96
2023/01/19 04:30:06;;;;;;;4.28;3.38;;;;;;;-0.73;100.00;100220.47;5997879;23;20060;-96
2023/01/19 04:32:37;;;;;;;5.85;3.70;;;;;;;-0.72;100.00;100228.97;5455930;23;20060;-97
2023/01/19 04:35:03;;;;;;;5.88;3.70;;;;;;;-0.74;100.00;100231.50;5034969;28;20033;-96
2023/01/19 04:37:28;;;;;;;4.53;3.28;;;;;;;-0.72;100.00;100223.88;5027732;28;20026;-95
2023/01/19 04:39:54;;;;;;;4.63;3.40;;;;;;;-0.73;100.00;100237.44;5023266;28;20057;-96
2023/01/19 04:42:19;;;;;;;4.43;3.00;;;;;;;-0.74;100.00;100233.19;5016101;28;20036;-95
2023/01/19 04:44:44;;;;;;;4.07;2.97;;;;;;;-0.72;100.00;100236.63;5015926;28;20069;-94
2023/01/19 04:47:22;;;;;;;3.47;2.83;;;;;;;-0.72;100.00;100244.28;5016476;28;20018;-92
2023/01/19 04:50:07;;;;;;;4.65;2.80;;;;;;;-0.76;100.00;100248.44;5016453;28;20057;-91
2023/01/19 04:52:34;;;;;;;2.63;2.42;;;;;;;-0.77;100.00;100236.53;4918027;29;20037;-91
2023/01/19 04:55:22;;;;;;;2.45;2.20;;;;;;;-0.79;100.00;100223.75;4918116;29;20076;-91
2023/01/19 04:57:47;;;;;;;1.90;1.80;;;;;;;-0.79;100.00;100211.00;4917941;29;20481;-91
2023/01/19 05:00:37;;;;;;;2.10;1.60;;;;;;;-0.73;100.00;100197.53;4917788;29;20112;-91
2023/01/19 05:03:11;;;;;;;1.70;1.60;;;;;;;-0.71;100.00;100183.13;4922664;29;20068;-90
2023/01/19 05:05:37;;;;;;;1.90;1.70;;;;;;;-0.68;100.00;100180.66;4931250;29;20043;-90
2023/01/19 05:08:17;;;;;;;1.58;1.48;;;;;;;-0.64;100.00;100190.09;4917573;29;20044;-90
2023/01/19 05:10:42;;;;;;;1.80;1.70;;;;;;;-0.59;100.00;100181.66;4917307;29;20035;-90
2023/01/19 05:13:19;;;;;;;1.90;1.80;;;;;;;-0.65;100.00;100183.28;4994487;28;20374;-91
2023/01/19 05:15:58;;;;;;;2.20;2.00;;;;;;;-0.60;100.00;100185.91;5015631;28;20382;-91
2023/01/19 05:18:24;;;;;;;2.42;2.22;;;;;;;-0.60;100.00;100175.72;5015685;28;20170;-90
2023/01/19 05:21:07;;;;;;;3.35;2.10;;;;;;;-0.59;100.00;100168.91;5015499;28;20490;-90
2023/01/19 05:23:33;;;;;;;2.35;1.98;;;;;;;-0.59;100.00;100177.44;5015813;28;20086;-91
2023/01/19 05:26:18;;;;;;;2.20;2.00;;;;;;;-0.57;100.00;100180.00;5015232;28;20157;-91
2023/01/19 05:28:47;;;;;;;2.40;2.20;;;;;;;-0.60;100.00;100169.72;5015432;28;20034;-92
2023/01/19 05:31:29;;;;;;;4.40;2.78;;;;;;;-0.59;100.00;100181.66;5014803;28;20033;-92
2023/01/19 05:34:20;;;;;;;3.55;2.70;;;;;;;-0.57;100.00;100193.63;5014973;28;20209;-92
2023/01/19 05:36:57;;;;;;;3.03;2.67;;;;;;;-0.59;100.00;100197.81;5015313;28;20030;-93
2023/01/19 05:39:37;;;;;;;3.58;2.80;;;;;;;-0.59;100.00;100210.56;5015439;28;20470;-92
2023/01/19 05:42:28;;;;;;;3.80;2.90;;;;;;;-0.60;100.00;100202.88;5015566;28;20032;-92
2023/01/19 05:45:15;;;;;;;4.97;3.13;;;;;;;-0.58;100.00;100207.19;5004982;28;20462;-92
2023/01/19 05:48:05;;;;;;;4.60;3.20;;;;;;;-0.56;100.00;100212.31;5015297;28;20018;-93
2023/01/19 05:50:31;;;;;;;6.78;4.10;;;;;;;-0.58;100.00;100208.88;5015535;28;20458;-94
2023/01/19 05:53:11;;;;;;;8.53;4.90;;;;;;;-0.57;100.00;100218.22;5015176;28;20033;-94
2023/01/19 05:58:23;;;;;;;8.32;4.80;;;;;;;-0.58;100.00;100219.94;5024687;23;20062;-91
2023/01/19 06:01:08;;;;;;;8.63;5.10;;;;;;;-0.55;100.00;100226.78;5014811;28;20026;-93
2023/01/19 06:03:48;;;;;;;8.35;4.93;;;;;;;-0.58;100.00;100222.50;5015055;28;20037;-94
2023/01/19 06:06:14;;;;;;;7.57;4.47;;;;;;;-0.57;100.00;100219.09;5014677;28;20034;-92
2023/01/19 06:12:01;;;;;;;12.00;5.70;;;;;;;-0.54;100.00;100229.34;5014919;28;20087;-93
2023/01/19 06:14:27;;;;;;;11.65;6.00;;;;;;;-0.54;100.00;100224.25;5014239;28;20459;-93
2023/01/19 06:20:14;;;;;;;10.50;5.60;;;;;;;-0.51;100.00;100233.66;5014949;28;20091;-93
2023/01/19 06:23:05;;;;;;;10.35;5.35;;;;;;;-0.52;100.00;100242.13;5014814;28;20030;-93
2023/01/19 06:25:31;;;;;;;12.20;5.95;;;;;;;-0.53;100.00;100241.25;5014725;28;20041;-93
2023/01/19 06:28:21;;;;;;;11.27;5.70;;;;;;;-0.51;100.00;100247.25;5014651;28;20060;-92
2023/01/19 06:31:11;;;;;;;11.57;6.25;;;;;;;-0.50;100.00;100245.56;5013670;28;20080;-94
2023/01/19 06:40:20;;;;;;;14.70;7.30;;;;;;;-0.51;100.00;100264.25;4935497;29;20080;-94
2023/01/19 06:43:03;;;;;;;14.18;6.88;;;;;;;-0.47;100.00;100263.47;4935098;29;20056;-95
2023/01/19 06:45:28;;;;;;;12.73;6.75;;;;;;;-0.48;100.00;100261.75;4935219;29;20039;-94
2023/01/19 06:48:18;;;;;;;12.30;6.45;;;;;;;-0.46;100.00;100275.41;4934973;29;20473;-94
2023/01/19 06:51:05;;;;;;;13.07;7.10;;;;;;;-0.45;100.00;100278.81;4935293;29;20032;-93
2023/01/19 06:53:31;;;;;;;11.30;7.10;;;;;;;-0.49;100.00;100276.19;4945414;28;20039;-91
2023/01/19 06:56:14;;;;;;;16.92;9.80;;;;;;;-0.47;100.00;100282.19;4992338;28;20037;-93
2023/01/19 06:58:41;;;;;;;17.15;10.20;;;;;;;-0.44;100.00;100288.16;4970712;28;20054;-90
2023/01/19 07:01:07;;;;;;;16.20;9.60;;;;;;;-0.44;100.00;100295.81;4974762;28;20035;-92
2023/01/19 07:06:18;;;;;;;17.65;10.07;;;;;;;-0.42;100.00;100287.38;4998350;28;20037;-93
2023/01/19 07:08:43;;;;;;;17.27;10.20;;;;;;;-0.41;100.00;100296.75;4999009;28;20386;-93
2023/01/19 07:11:32;;;;;;;17.83;10.82;;;;;;;-0.42;100.00;100305.22;4998662;28;20038;-94
2023/01/19 07:13:58;;;;;;;18.85;11.80;;;;;;;-0.39;100.00;100314.63;4998534;28;20027;-96
2023/01/19 07:16:46;;;;;;;19.48;12.38;;;;;;;-0.39;100.00;100320.56;4998199;28;20089;-94
2023/01/19 07:19:44;;;;;;;18.33;11.65;;;;;;;-0.37;100.00;100324.03;4995920;28;20031;-96
2023/01/19 07:22:09;;;;;;;17.10;9.82;;;;;;;-0.38;100.00;100313.81;4999058;28;20073;-94
2023/01/19 07:24:47;;;;;;;15.07;9.18;;;;;;;-0.38;100.00;100317.19;4996268;28;20034;-94
2023/01/19 07:27:12;;;;;;;16.23;9.77;;;;;;;-0.38;100.00;100318.91;4995942;28;20053;-96
2023/01/19 07:29:53;;;;;;;16.30;9.68;;;;;;;-0.38;100.00;100319.75;5084218;23;20046;-96
2023/01/19 07:32:18;;;;;;;16.58;9.32;;;;;;;-0.34;100.00;100323.25;5000995;28;20018;-88
2023/01/19 07:35:02;;;;;;;19.45;11.20;;;;;;;-0.34;100.00;100323.25;4998833;28;20034;-95
2023/01/19 07:37:27;;;;;;;19.77;11.10;;;;;;;-0.32;100.00;100336.88;4998647;28;20036;-93
2023/01/19 07:40:13;;;;;;;20.67;12.60;;;;;;;-0.24;100.00;100337.91;4998488;28;20022;-91
2023/01/19 07:43:03;;;;;;;20.67;12.38;;;;;;;-0.26;100.00;100334.47;4998201;28;20121;-92
2023/01/19 07:45:38;;;;;;;;;;;;;;;;;;;;;
2023/01/19 07:48:04;;;;;;;18.77;11.13;;;;;;;-0.24;100.00;100344.69;4957083;28;20039;-93
2023/01/19 07:50:50;;;;;;;19.08;11.13;;;;;;;-0.22;100.00;100350.69;4996987;28;20106;-90
2023/01/19 07:53:16;;;;;;;19.05;11.60;;;;;;;-0.25;100.00;100350.59;4997741;28;20076;-91
2023/01/19 07:55:55;;;;;;;20.65;12.50;;;;;;;-0.25;100.00;100351.50;4997984;28;20467;-91
2023/01/19 07:58:21;;;;;;;21.52;12.57;;;;;;;-0.24;100.00;100360.88;4997281;28;20044;-91
2023/01/19 08:01:11;;;;;;;19.97;11.97;;;;;;;-0.22;100.00;100363.44;4997701;28;20033;-91
2023/01/19 08:03:51;;;;;;;19.00;10.73;;;;;;;-0.26;100.00;100362.50;4997734;28;20026;-91
2023/01/19 08:06:37;;;;;;;19.70;10.85;;;;;;;-0.25;100.00;100368.47;4997734;28;20379;-90
2023/01/19 08:09:21;;;;;;;15.05;8.82;;;;;;;-0.29;100.00;100370.09;4997155;28;20072;-88
2023/01/19 08:11:46;;;;;;;18.40;10.02;;;;;;;-0.24;100.00;100373.63;4996403;28;20061;-90
2023/01/19 08:14:39;;;;;;;15.15;8.40;;;;;;;-0.23;100.00;100382.13;4997147;28;20030;-91
2023/01/19 08:17:04;;;;;;;16.02;8.65;;;;;;;-0.26;100.00;100382.03;4997717;28;20031;-91
2023/01/19 08:19:30;;;;;;;16.38;9.15;;;;;;;-0.26;100.00;100382.03;4997333;28;20029;-91
2023/01/19 08:21:57;;;;;;;16.98;9.20;;;;;;;-0.24;100.00;100391.47;4997148;28;20030;-91
2023/01/19 08:24:40;;;;;;;16.10;8.27;;;;;;;-0.23;100.00;100389.75;4996636;28;20026;-92
2023/01/19 08:27:08;;;;;;;16.67;8.48;;;;;;;-0.20;100.00;100398.34;4997655;28;20030;-92
2023/01/19 08:29:53;;;;;;;16.30;8.88;;;;;;;-0.21;100.00;100400.88;4995864;28;20074;-91
2023/01/19 08:32:18;;;;;;;19.73;10.27;;;;;;;-0.20;100.00;100412.78;4996578;28;20042;-90
2023/01/19 08:35:02;;;;;;;19.27;10.38;;;;;;;-0.19;100.00;100409.41;4996351;28;20077;-90
2023/01/19 08:37:27;;;;;;;23.85;13.32;;;;;;;-0.17;100.00;100418.81;4996597;28;20073;-90
2023/01/19 08:40:11;;;;;;;22.13;11.60;;;;;;;-0.12;100.00;100421.47;4996694;28;20027;-89
2023/01/19 08:42:36;;;;;;;20.50;11.07;;;;;;;-0.11;100.00;100422.34;4996551;28;20033;-89
2023/01/19 08:45:02;;;;;;;20.25;10.00;;;;;;;-0.09;100.00;100420.66;4996782;28;20378;-89
2023/01/19 08:47:28;;;;;;;20.90;11.15;;;;;;;-0.10;100.00;100430.03;4996546;28;20026;-89
2023/01/19 08:50:12;;;;;;;20.67;10.80;;;;;;;-0.10;100.00;100431.69;4996497;28;20471;-88
2023/01/19 08:52:37;;;;;;;20.40;10.15;;;;;;;-0.08;100.00;100445.34;4996711;28;20468;-88
2023/01/19 08:55:03;;;;;;;22.10;11.10;;;;;;;-0.07;100.00;100452.19;4995282;28;20121;-88
2023/01/19 08:57:51;;;;;;;25.13;13.90;;;;;;;-0.11;100.00;100438.50;4994564;28;20066;-87
2023/01/19 09:00:17;;;;;;;25.38;14.07;;;;;;;-0.06;100.00;100448.81;4996405;28;20018;-88
2023/01/19 09:02:58;;;;;;;25.63;13.85;;;;;;;-0.01;100.00;100455.72;4995904;28;20038;-88
2023/01/19 09:05:23;;;;;;;25.50;14.07;;;;;;;0.05;100.00;100462.66;4995768;28;20368;-88
2023/01/19 09:07:50;;;;;;;25.83;13.90;;;;;;;0.10;100.00;100462.75;4996064;28;20463;-87
2023/01/19 09:10:16;;;;;;;;;;;;;;;0.12;100.00;100467.03;4995608;28;20452;-87
2023/01/19 09:12:53;;;;;;;27.53;14.67;;;;;;;0.10;100.00;100466.19;4996191;28;19949;-88
2023/01/19 09:15:19;;;;;;;24.35;12.65;;;;;;;0.11;100.00;100464.47;4995910;28;20065;-88
2023/01/19 09:18:00;;;;;;;23.15;11.88;;;;;;;0.13;100.00;100473.88;4995111;28;20486;-88
2023/01/19 09:20:27;;;;;;;20.52;9.95;;;;;;;0.15;100.00;100468.81;4995634;28;20065;-88
2023/01/19 09:22:54;;;;;;;19.25;9.10;;;;;;;0.15;100.00;100479.88;4995915;28;20014;-88
2023/01/19 09:25:38;;;;;;;20.05;9.25;;;;;;;0.14;100.00;100475.59;4994296;28;20049;-87
2023/01/19 09:28:06;;;;;;;20.77;9.30;;;;;;;0.17;100.00;100479.91;4991523;28;20096;-81
2023/01/19 09:30:32;;;;;;;24.42;10.93;;;;;;;0.19;100.00;100474.84;4976606;28;20039;-88
2023/01/19 09:33:18;;;;;;;22.10;10.63;;;;;;;0.24;100.00;100480.91;4976330;28;20045;-89
2023/01/19 09:35:45;;;;;;;23.73;12.07;;;;;;;0.25;100.00;100480.94;4976242;28;20058;-91
2023/01/19 09:38:31;;;;;;;24.75;13.30;;;;;;;0.25;100.00;100477.53;4976380;28;20173;-90
2023/01/19 09:41:18;;;;;;;26.27;13.75;;;;;;;0.31;100.00;100482.78;4976196;28;20027;-87
2023/01/19 09:43:49;;;;;;;;;;;;;;;0.38;100.00;100489.72;4976288;28;20031;-87
2023/01/19 09:46:37;;;;;;;25.17;12.77;;;;;;;0.45;100.00;100489.00;4993146;23;20008;-88
2023/01/19 09:49:14;;;;;;;26.00;13.75;;;;;;;0.52;100.00;100495.09;4995214;28;20057;-88
2023/01/19 09:51:50;;;;;;;25.27;13.27;;;;;;;0.61;100.00;100496.97;4982191;28;20019;-88
2023/01/19 09:54:43;;;;;;;25.33;13.95;;;;;;;0.71;100.00;100493.78;4975520;28;20077;-88
2023/01/19 09:57:12;;;;;;;23.55;12.32;;;;;;;0.81;100.00;100493.94;4975903;28;20022;-87
2023/01/19 09:59:38;;;;;;;24.50;12.10;;;;;;;0.95;100.00;100507.00;4975080;28;20023;-87
2023/01/19 10:02:35;;;;;;;22.87;11.53;;;;;;;1.02;100.00;100507.13;4975175;28;20050;-86
2023/01/19 10:05:09;;;;;;;23.50;12.05;;;;;;;1.11;100.00;100510.69;4975936;28;20471;-87
2023/01/19 10:08:04;;;;;;;;;;;;;;;;;;;;;
2023/01/19 10:10:41;;;;;;;21.17;10.07;;;;;;;1.27;100.00;100512.69;4970489;28;20035;-87
2023/01/19 10:13:27;;;;;;;20.45;10.00;;;;;;;1.34;100.00;100511.09;4974707;28;20425;-85
2023/01/19 10:15:59;;;;;;;;;;;;;;;1.37;100.00;100521.38;4974573;28;20034;-85
2023/01/19 10:18:50;;;;;;;20.50;9.80;;;;;;;1.38;100.00;100513.72;4974562;28;20257;-86
2023/01/19 10:21:23;;;;;;;19.85;9.20;;;;;;;1.41;100.00;100520.56;4973942;28;20101;-85
2023/01/19 10:24:17;;;;;;;19.27;9.77;;;;;;;1.38;100.00;100523.09;4973793;28;20101;-86
2023/01/19 10:27:00;;;;;;;21.35;10.65;;;;;;;1.38;100.00;100521.41;4973576;28;20038;-86
2023/01/19 10:29:36;;;;;;;21.60;10.20;;;;;;;1.43;100.00;100515.50;4974787;28;20031;-85
2023/01/19 10:32:35;;;;;;;21.67;11.30;;;;;;;1.50;100.00;100520.75;4974835;28;20027;-87
2023/01/19 10:35:13;;;;;;;21.33;10.50;;;;;;;1.53;100.00;100525.06;4954496;28;20377;-86
2023/01/19 10:37:40;;;;;;;20.25;10.30;;;;;;;1.61;100.00;100526.03;4974776;28;20431;-86
2023/01/19 10:40:09;;;;;;;18.70;9.60;;;;;;;1.68;100.00;100525.31;4973868;28;20019;-88
2023/01/19 10:42:35;;;;;;;20.98;10.25;;;;;;;1.75;100.00;100530.53;4974387;28;20030;-86
2023/01/19 10:45:01;;;;;;;20.25;9.50;;;;;;;1.78;100.00;100528.88;4975625;28;20459;-89
2023/01/19 10:47:35;;;;;;;20.85;10.88;;;;;;;1.83;100.00;100523.81;4994721;28;20051;-88
2023/01/19 10:50:18;;;;;;;19.80;10.18;;;;;;;1.88;100.00;100526.44;4993449;28;20037;-88
2023/01/19 10:52:49;;;;;;;17.67;9.20;;;;;;;1.93;100.00;100527.38;4994282;28;20077;-88
2023/01/19 10:55:27;;;;;;;18.83;9.32;;;;;;;1.96;100.00;100522.31;4993634;28;20100;-89
2023/01/19 10:57:57;;;;;;;18.92;9.02;;;;;;;2.02;100.00;100532.63;4994527;28;20114;-89
2023/01/19 11:00:36;;;;;;;18.15;8.20;;;;;;;2.09;100.00;100528.47;4993776;28;20034;-88
2023/01/19 11:03:03;;;;;;;17.38;8.20;;;;;;;2.12;100.00;100529.38;4993538;28;20030;-89
2023/01/19 11:05:30;;;;;;;17.08;7.55;;;;;;;2.20;100.00;100520.91;4993586;28;20042;-88
2023/01/19 11:07:56;;;;;;;17.35;7.70;;;;;;;2.26;100.00;100518.47;4993527;28;20027;-88
2023/01/19 11:10:24;;;;;;;16.45;7.88;;;;;;;2.29;100.00;100518.50;4993889;28;20065;-88
2023/01/19 11:12:59;;;;;;;17.77;8.73;;;;;;;2.31;100.00;100512.56;4993613;28;20032;-87
2023/01/19 11:15:40;;;;;;;17.98;8.68;;;;;;;2.30;100.00;100521.09;4993711;28;20430;-88
2023/01/19 11:18:06;;;;;;;19.00;8.25;;;;;;;2.37;100.00;100523.72;5011898;28;20087;-88
2023/01/19 11:20:52;;;;;;;16.77;8.10;;;;;;;2.43;100.00;100518.69;5013922;28;20026;-89
2023/01/19 11:23:28;;;;;;;16.52;7.75;;;;;;;2.50;100.00;100522.19;5012246;28;20084;-89
2023/01/19 11:26:00;;;;;;;17.42;7.45;;;;;;;2.55;100.00;100520.53;5013306;28;20037;-89
2023/01/19 11:28:33;;;;;;;15.18;6.97;;;;;;;2.60;100.00;100522.31;5013345;28;20082;-89
2023/01/19 11:31:01;;;;;;;14.77;6.63;;;;;;;2.68;100.00;100522.41;5013758;28;20026;-88
2023/01/19 11:33:42;;;;;;;17.90;8.18;;;;;;;2.74;100.00;100521.63;5012597;28;20076;-89
2023/01/19 11:36:17;;;;;;;19.05;8.48;;;;;;;2.72;100.00;100515.59;5012273;28;20057;-89
2023/01/19 11:38:47;;;;;;;18.67;9.20;;;;;;;2.71;100.00;100521.56;5013753;28;20045;-89
2023/01/19 11:41:19;;;;;;;20.30;9.20;;;;;;;2.74;100.00;100524.19;5013247;28;20287;-90
2023/01/19 11:43:48;;;;;;;18.05;8.48;;;;;;;2.82;100.00;100526.84;5012798;28;20034;-89
2023/01/19 11:46:14;;;;;;;19.92;9.70;;;;;;;2.87;100.00;100520.91;4999365;28;20161;-89
2023/01/19 11:49:05;;;;;;;18.27;9.18;;;;;;;2.86;100.00;100515.78;4994216;28;20090;-89
2023/01/19 11:52:03;;;;;;;18.77;8.77;;;;;;;2.82;100.00;100522.56;4996607;28;20022;-90
2023/01/19 11:55:09;;;;;;;17.10;8.25;;;;;;;2.88;100.00;100525.22;4963868;28;20038;-90
2023/01/19 11:57:46;;;;;;;19.35;9.13;;;;;;;2.91;100.00;100532.94;4899971;29;20028;-89
2023/01/19 12:00:34;;;;;;;16.95;7.90;;;;;;;3.00;100.00;100532.16;4896028;29;20044;-91
2023/01/19 12:03:23;;;;;;;16.05;7.22;;;;;;;3.13;100.00;100534.84;4899565;29;20577;-90
2023/01/19 12:06:08;;;;;;;16.23;7.50;;;;;;;3.12;100.00;100520.31;4899751;29;20169;-90
2023/01/19 12:08:55;;;;;;;16.47;7.27;;;;;;;3.14;100.00;100527.19;4932049;28;20037;-90
2023/01/19 12:11:24;;;;;;;;;;;;;;;3.16;100.00;100530.59;4997845;28;20031;-90
2023/01/19 12:13:51;;;;;;;16.55;7.57;;;;;;;3.16;100.00;100520.34;4996880;28;19916;-89
2023/01/19 12:16:27;;;;;;;14.90;6.55;;;;;;;3.19;100.00;100522.97;4997117;28;20030;-90
2023/01/19 12:19:45;;;;;;;16.17;7.50;;;;;;;3.16;100.00;100522.91;4997078;28;20097;-90
2023/01/19 12:22:15;;;;;;;17.42;7.68;;;;;;;3.20;100.00;100529.81;4918181;29;20477;-90
2023/01/19 12:25:09;;;;;;;16.50;7.95;;;;;;;3.20;100.00;100523.84;4936633;28;20042;-90
2023/01/19 12:28:02;;;;;;;15.95;7.25;;;;;;;3.19;100.00;100528.09;4997047;28;20513;-90
2023/01/19 12:30:40;;;;;;;16.85;7.97;;;;;;;3.17;100.00;100521.22;4993777;28;20181;-89
2023/01/19 12:33:35;;;;;;;15.38;7.22;;;;;;;3.19;100.00;100522.13;4996537;28;20491;-90
2023/01/19 12:36:16;;;;;;;18.35;7.90;;;;;;;3.19;100.00;100527.25;4996969;28;20022;-90
2023/01/19 12:39:00;;;;;;;17.65;8.90;;;;;;;3.13;100.00;100530.59;4996706;28;20049;-90
2023/01/19 12:41:29;;;;;;;16.95;7.63;;;;;;;3.11;100.00;100534.84;4996543;28;20022;-90
2023/01/19 12:44:09;;;;;;;16.83;7.82;;;;;;;3.14;100.00;100522.06;4996959;28;20465;-90
2023/01/19 12:46:36;;;;;;;16.85;7.82;;;;;;;3.15;100.00;100530.59;4996401;28;20072;-89
2023/01/19 12:49:22;;;;;;;;;;;;;;;3.17;100.00;100528.94;4997174;28;20567;-90